sensor_id;sensor_type;location;lat;lon;timestamp;temperature;humidity
23991;DHT22;12205;50.600;4.608;2023-08-31T00:00:01;13.60;99.90
23991;DHT22;12205;50.600;4.608;2023-08-31T00:02:32;13.60;99.90
23991;DHT22;12205;50.600;4.608;2023-08-31T00:04:59;13.60;99.90
23991;DHT22;12205;50.600;4.608;2023-08-31T00:07:26;13.60;99.90
23991;DHT22;12205;50.600;4.608;2023-08-31T00:09:52;13.60;99.90
23991;DHT22;12205;50.600;4.608;2023-08-31T00:12:21;13.60;99.90
23991;DHT22;12205;50.600;4.608;2023-08-31T00:14:49;13.60;99.90
23991;DHT22;12205;50.600;4.608;2023-08-31T00:17:16;13.60;99.90
23991;DHT22;12205;50.600;4.608;2023-08-31T00:19:44;13.60;99.90
23991;DHT22;12205;50.600;4.608;2023-08-31T00:22:11;13.60;99.90
23991;DHT22;12205;50.600;4.608;2023-08-31T00:24:38;13.60;99.90
23991;DHT22;12205;50.600;4.608;2023-08-31T00:27:05;13.60;99.90
23991;DHT22;12205;50.600;4.608;2023-08-31T00:29:33;13.50;99.90
23991;DHT22;12205;50.600;4.608;2023-08-31T00:32:01;13.40;99.90
23991;DHT22;12205;50.600;4.608;2023-08-31T00:34:28;13.40;99.90
23991;DHT22;12205;50.600;4.608;2023-08-31T00:36:55;13.40;99.90
23991;DHT22;12205;50.600;4.608;2023-08-31T00:39:22;13.40;99.90
23991;DHT22;12205;50.600;4.608;2023-08-31T00:41:49;13.30;99.90
23991;DHT22;12205;50.600;4.608;2023-08-31T00:44:16;13.30;99.90
23991;DHT22;12205;50.600;4.608;2023-08-31T00:46:44;13.30;99.90
23991;DHT22;12205;50.600;4.608;2023-08-31T00:49:12;13.40;99.90
23991;DHT22;12205;50.600;4.608;2023-08-31T00:51:41;13.40;99.90
23991;DHT22;12205;50.600;4.608;2023-08-31T00:54:08;13.40;99.90
23991;DHT22;12205;50.600;4.608;2023-08-31T00:56:35;13.40;99.90
23991;DHT22;12205;50.600;4.608;2023-08-31T00:59:02;13.40;99.90
23991;DHT22;12205;50.600;4.608;2023-08-31T01:01:37;13.40;99.90
23991;DHT22;12205;50.600;4.608;2023-08-31T01:04:17;13.50;99.90
23991;DHT22;12205;50.600;4.608;2023-08-31T01:06:53;13.40;99.90
23991;DHT22;12205;50.600;4.608;2023-08-31T01:09:31;13.50;99.90
23991;DHT22;12205;50.600;4.608;2023-08-31T01:12:02;13.50;99.90
23991;DHT22;12205;50.600;4.608;2023-08-31T01:14:31;13.50;99.90
23991;DHT22;12205;50.600;4.608;2023-08-31T01:16:59;13.50;99.90
23991;DHT22;12205;50.600;4.608;2023-08-31T01:19:43;13.50;99.90
23991;DHT22;12205;50.600;4.608;2023-08-31T01:22:16;13.50;99.90
23991;DHT22;12205;50.600;4.608;2023-08-31T01:24:47;13.50;99.90
23991;DHT22;12205;50.600;4.608;2023-08-31T01:27:14;13.60;99.90
23991;DHT22;12205;50.600;4.608;2023-08-31T01:29:42;13.50;99.90
23991;DHT22;12205;50.600;4.608;2023-08-31T01:32:09;13.50;99.90
23991;DHT22;12205;50.600;4.608;2023-08-31T01:34:38;13.50;99.90
23991;DHT22;12205;50.600;4.608;2023-08-31T01:37:12;13.50;99.90
23991;DHT22;12205;50.600;4.608;2023-08-31T01:39:44;13.50;99.90
23991;DHT22;12205;50.600;4.608;2023-08-31T01:42:16;13.50;99.90
23991;DHT22;12205;50.600;4.608;2023-08-31T01:44:45;13.50;99.90
23991;DHT22;12205;50.600;4.608;2023-08-31T01:47:15;13.50;99.90
23991;DHT22;12205;50.600;4.608;2023-08-31T01:49:44;13.50;99.90
23991;DHT22;12205;50.600;4.608;2023-08-31T01:52:11;13.50;99.90
23991;DHT22;12205;50.600;4.608;2023-08-31T01:54:38;13.50;99.90
23991;DHT22;12205;50.600;4.608;2023-08-31T01:57:06;13.50;99.90
23991;DHT22;12205;50.600;4.608;2023-08-31T01:59:35;13.50;99.90
23991;DHT22;12205;50.600;4.608;2023-08-31T02:02:02;13.50;99.90
23991;DHT22;12205;50.600;4.608;2023-08-31T02:04:29;13.50;99.90
23991;DHT22;12205;50.600;4.608;2023-08-31T02:06:56;13.50;99.90
23991;DHT22;12205;50.600;4.608;2023-08-31T02:09:23;13.50;99.90
23991;DHT22;12205;50.600;4.608;2023-08-31T02:11:50;13.40;99.90
23991;DHT22;12205;50.600;4.608;2023-08-31T02:14:19;13.50;99.90
23991;DHT22;12205;50.600;4.608;2023-08-31T02:16:48;13.50;99.90
23991;DHT22;12205;50.600;4.608;2023-08-31T02:19:15;13.50;99.90
23991;DHT22;12205;50.600;4.608;2023-08-31T02:24:37;13.50;99.90
23991;DHT22;12205;50.600;4.608;2023-08-31T02:27:04;13.50;99.90
23991;DHT22;12205;50.600;4.608;2023-08-31T02:29:31;13.50;99.90
23991;DHT22;12205;50.600;4.608;2023-08-31T02:31:59;13.50;99.90
23991;DHT22;12205;50.600;4.608;2023-08-31T02:34:26;13.50;99.90
23991;DHT22;12205;50.600;4.608;2023-08-31T02:36:53;13.50;99.90
23991;DHT22;12205;50.600;4.608;2023-08-31T02:39:20;13.50;99.90
23991;DHT22;12205;50.600;4.608;2023-08-31T02:41:46;13.50;99.90
23991;DHT22;12205;50.600;4.608;2023-08-31T02:44:14;13.50;99.90
23991;DHT22;12205;50.600;4.608;2023-08-31T02:46:40;13.50;99.90
23991;DHT22;12205;50.600;4.608;2023-08-31T02:49:09;13.50;99.90
23991;DHT22;12205;50.600;4.608;2023-08-31T02:51:35;13.50;99.90
23991;DHT22;12205;50.600;4.608;2023-08-31T02:54:03;13.50;99.90
23991;DHT22;12205;50.600;4.608;2023-08-31T02:56:30;13.60;99.90
23991;DHT22;12205;50.600;4.608;2023-08-31T02:58:57;13.50;99.90
23991;DHT22;12205;50.600;4.608;2023-08-31T03:01:24;13.60;99.90
23991;DHT22;12205;50.600;4.608;2023-08-31T03:03:51;13.60;99.90
23991;DHT22;12205;50.600;4.608;2023-08-31T03:06:21;13.60;99.90
23991;DHT22;12205;50.600;4.608;2023-08-31T03:08:48;13.50;99.90
23991;DHT22;12205;50.600;4.608;2023-08-31T03:11:15;13.50;99.90
23991;DHT22;12205;50.600;4.608;2023-08-31T03:13:41;13.60;99.90
23991;DHT22;12205;50.600;4.608;2023-08-31T03:16:08;13.60;99.90
23991;DHT22;12205;50.600;4.608;2023-08-31T03:18:35;13.60;99.90
23991;DHT22;12205;50.600;4.608;2023-08-31T03:21:02;13.70;99.90
23991;DHT22;12205;50.600;4.608;2023-08-31T03:23:31;13.70;99.90
23991;DHT22;12205;50.600;4.608;2023-08-31T03:25:58;13.70;99.90
23991;DHT22;12205;50.600;4.608;2023-08-31T03:28:26;13.80;99.90
23991;DHT22;12205;50.600;4.608;2023-08-31T03:30:56;13.70;99.90
23991;DHT22;12205;50.600;4.608;2023-08-31T03:33:24;13.70;99.90
23991;DHT22;12205;50.600;4.608;2023-08-31T03:35:51;13.70;99.90
23991;DHT22;12205;50.600;4.608;2023-08-31T03:38:18;13.70;99.90
23991;DHT22;12205;50.600;4.608;2023-08-31T03:40:53;13.70;99.90
23991;DHT22;12205;50.600;4.608;2023-08-31T03:43:21;13.70;99.90
23991;DHT22;12205;50.600;4.608;2023-08-31T03:45:53;13.70;99.90
23991;DHT22;12205;50.600;4.608;2023-08-31T03:48:21;13.80;99.90
23991;DHT22;12205;50.600;4.608;2023-08-31T03:50:49;13.70;99.90
23991;DHT22;12205;50.600;4.608;2023-08-31T03:53:16;13.80;99.90
23991;DHT22;12205;50.600;4.608;2023-08-31T03:55:43;13.70;99.90
23991;DHT22;12205;50.600;4.608;2023-08-31T03:58:15;13.70;99.90
23991;DHT22;12205;50.600;4.608;2023-08-31T04:00:49;13.70;99.90
23991;DHT22;12205;50.600;4.608;2023-08-31T04:03:17;13.70;99.90
23991;DHT22;12205;50.600;4.608;2023-08-31T04:05:44;13.70;99.90
23991;DHT22;12205;50.600;4.608;2023-08-31T04:08:12;13.70;99.90
23991;DHT22;12205;50.600;4.608;2023-08-31T04:10:39;13.70;99.90
23991;DHT22;12205;50.600;4.608;2023-08-31T04:13:06;13.70;99.90
23991;DHT22;12205;50.600;4.608;2023-08-31T04:15:34;13.70;99.90
23991;DHT22;12205;50.600;4.608;2023-08-31T04:18:01;13.70;99.90
23991;DHT22;12205;50.600;4.608;2023-08-31T04:20:28;13.70;99.90
23991;DHT22;12205;50.600;4.608;2023-08-31T04:22:55;13.70;99.90
23991;DHT22;12205;50.600;4.608;2023-08-31T04:25:22;13.70;99.90
23991;DHT22;12205;50.600;4.608;2023-08-31T04:27:49;13.80;99.90
23991;DHT22;12205;50.600;4.608;2023-08-31T04:30:16;13.80;99.90
23991;DHT22;12205;50.600;4.608;2023-08-31T04:32:44;13.70;99.90
23991;DHT22;12205;50.600;4.608;2023-08-31T04:35:12;13.70;99.90
23991;DHT22;12205;50.600;4.608;2023-08-31T04:37:39;13.70;99.90
23991;DHT22;12205;50.600;4.608;2023-08-31T04:40:07;13.70;99.90
23991;DHT22;12205;50.600;4.608;2023-08-31T04:42:34;13.70;99.90
23991;DHT22;12205;50.600;4.608;2023-08-31T04:45:01;13.60;99.90
23991;DHT22;12205;50.600;4.608;2023-08-31T04:47:28;13.60;99.90
23991;DHT22;12205;50.600;4.608;2023-08-31T04:49:56;13.60;99.90
23991;DHT22;12205;50.600;4.608;2023-08-31T04:52:25;13.60;99.90
23991;DHT22;12205;50.600;4.608;2023-08-31T04:54:51;13.50;99.90
23991;DHT22;12205;50.600;4.608;2023-08-31T04:57:18;13.50;99.90
23991;DHT22;12205;50.600;4.608;2023-08-31T04:59:45;13.50;99.90
23991;DHT22;12205;50.600;4.608;2023-08-31T05:02:12;13.50;99.90
23991;DHT22;12205;50.600;4.608;2023-08-31T05:04:40;13.40;99.90
23991;DHT22;12205;50.600;4.608;2023-08-31T05:07:08;13.40;99.90
23991;DHT22;12205;50.600;4.608;2023-08-31T05:09:35;13.30;99.90
23991;DHT22;12205;50.600;4.608;2023-08-31T05:12:02;13.30;99.90
23991;DHT22;12205;50.600;4.608;2023-08-31T05:14:29;13.30;99.90
23991;DHT22;12205;50.600;4.608;2023-08-31T05:16:56;13.30;99.90
23991;DHT22;12205;50.600;4.608;2023-08-31T05:19:23;13.40;99.90
23991;DHT22;12205;50.600;4.608;2023-08-31T05:21:50;13.40;99.90
23991;DHT22;12205;50.600;4.608;2023-08-31T05:24:19;13.40;99.90
23991;DHT22;12205;50.600;4.608;2023-08-31T05:26:45;13.40;99.90
23991;DHT22;12205;50.600;4.608;2023-08-31T05:29:11;13.40;99.90
23991;DHT22;12205;50.600;4.608;2023-08-31T05:31:38;13.40;99.90
23991;DHT22;12205;50.600;4.608;2023-08-31T05:34:05;13.30;99.90
23991;DHT22;12205;50.600;4.608;2023-08-31T05:36:32;13.30;99.90
23991;DHT22;12205;50.600;4.608;2023-08-31T05:38:59;13.30;99.90
23991;DHT22;12205;50.600;4.608;2023-08-31T05:41:27;13.20;99.90
23991;DHT22;12205;50.600;4.608;2023-08-31T05:43:54;13.10;99.90
23991;DHT22;12205;50.600;4.608;2023-08-31T05:46:21;13.10;99.90
23991;DHT22;12205;50.600;4.608;2023-08-31T05:48:48;13.10;99.90
23991;DHT22;12205;50.600;4.608;2023-08-31T05:51:15;13.10;99.90
23991;DHT22;12205;50.600;4.608;2023-08-31T05:53:42;13.10;99.90
23991;DHT22;12205;50.600;4.608;2023-08-31T05:56:09;13.10;99.90
23991;DHT22;12205;50.600;4.608;2023-08-31T05:58:37;13.20;99.90
23991;DHT22;12205;50.600;4.608;2023-08-31T06:01:04;13.20;99.90
23991;DHT22;12205;50.600;4.608;2023-08-31T06:03:32;13.30;99.90
23991;DHT22;12205;50.600;4.608;2023-08-31T06:05:59;13.40;99.90
23991;DHT22;12205;50.600;4.608;2023-08-31T06:08:26;13.40;99.90
23991;DHT22;12205;50.600;4.608;2023-08-31T06:10:53;13.50;99.90
23991;DHT22;12205;50.600;4.608;2023-08-31T06:13:20;13.50;99.90
23991;DHT22;12205;50.600;4.608;2023-08-31T06:15:48;13.50;99.90
23991;DHT22;12205;50.600;4.608;2023-08-31T06:18:15;13.60;99.90
23991;DHT22;12205;50.600;4.608;2023-08-31T06:20:42;13.70;99.90
23991;DHT22;12205;50.600;4.608;2023-08-31T06:23:10;13.70;99.90
23991;DHT22;12205;50.600;4.608;2023-08-31T06:25:37;13.80;99.90
23991;DHT22;12205;50.600;4.608;2023-08-31T06:28:04;13.90;99.90
23991;DHT22;12205;50.600;4.608;2023-08-31T06:30:34;14.00;99.90
23991;DHT22;12205;50.600;4.608;2023-08-31T06:33:02;14.00;99.90
23991;DHT22;12205;50.600;4.608;2023-08-31T06:35:29;13.90;99.90
23991;DHT22;12205;50.600;4.608;2023-08-31T06:37:56;13.90;99.90
23991;DHT22;12205;50.600;4.608;2023-08-31T06:40:24;13.90;99.90
23991;DHT22;12205;50.600;4.608;2023-08-31T06:42:51;14.00;99.90
23991;DHT22;12205;50.600;4.608;2023-08-31T06:45:18;14.00;99.90
23991;DHT22;12205;50.600;4.608;2023-08-31T06:47:45;14.10;99.90
23991;DHT22;12205;50.600;4.608;2023-08-31T06:50:13;14.10;99.90
23991;DHT22;12205;50.600;4.608;2023-08-31T06:52:40;14.10;99.90
23991;DHT22;12205;50.600;4.608;2023-08-31T06:55:08;14.00;99.90
23991;DHT22;12205;50.600;4.608;2023-08-31T06:57:36;14.00;99.90
23991;DHT22;12205;50.600;4.608;2023-08-31T07:00:04;14.00;99.90
23991;DHT22;12205;50.600;4.608;2023-08-31T07:02:31;14.00;99.90
23991;DHT22;12205;50.600;4.608;2023-08-31T07:05:00;14.00;99.90
23991;DHT22;12205;50.600;4.608;2023-08-31T07:07:28;14.10;99.90
23991;DHT22;12205;50.600;4.608;2023-08-31T07:09:55;14.10;99.90
23991;DHT22;12205;50.600;4.608;2023-08-31T07:12:22;14.10;99.90
23991;DHT22;12205;50.600;4.608;2023-08-31T07:14:49;14.10;99.90
23991;DHT22;12205;50.600;4.608;2023-08-31T07:17:18;14.20;99.90
23991;DHT22;12205;50.600;4.608;2023-08-31T07:19:45;14.20;99.90
23991;DHT22;12205;50.600;4.608;2023-08-31T07:22:12;14.20;99.90
23991;DHT22;12205;50.600;4.608;2023-08-31T07:24:40;14.20;99.90
23991;DHT22;12205;50.600;4.608;2023-08-31T07:27:07;14.30;99.90
23991;DHT22;12205;50.600;4.608;2023-08-31T07:29:34;14.30;99.90
23991;DHT22;12205;50.600;4.608;2023-08-31T07:32:01;14.40;99.90
23991;DHT22;12205;50.600;4.608;2023-08-31T07:34:28;14.50;99.90
23991;DHT22;12205;50.600;4.608;2023-08-31T07:36:58;14.40;99.90
23991;DHT22;12205;50.600;4.608;2023-08-31T07:39:25;14.50;99.90
23991;DHT22;12205;50.600;4.608;2023-08-31T07:41:54;14.50;99.90
23991;DHT22;12205;50.600;4.608;2023-08-31T07:44:21;14.50;99.90
23991;DHT22;12205;50.600;4.608;2023-08-31T07:46:48;14.60;99.90
23991;DHT22;12205;50.600;4.608;2023-08-31T07:49:15;14.80;99.90
23991;DHT22;12205;50.600;4.608;2023-08-31T07:51:42;15.00;99.90
23991;DHT22;12205;50.600;4.608;2023-08-31T07:54:09;15.10;99.90
23991;DHT22;12205;50.600;4.608;2023-08-31T07:56:36;15.20;99.90
23991;DHT22;12205;50.600;4.608;2023-08-31T07:59:07;15.20;99.90
23991;DHT22;12205;50.600;4.608;2023-08-31T08:01:34;15.20;99.90
23991;DHT22;12205;50.600;4.608;2023-08-31T08:04:00;15.30;99.90
23991;DHT22;12205;50.600;4.608;2023-08-31T08:06:28;15.30;99.90
23991;DHT22;12205;50.600;4.608;2023-08-31T08:08:55;15.30;99.90
23991;DHT22;12205;50.600;4.608;2023-08-31T08:11:22;15.40;99.90
23991;DHT22;12205;50.600;4.608;2023-08-31T08:13:49;15.40;99.90
23991;DHT22;12205;50.600;4.608;2023-08-31T08:16:17;15.50;99.90
23991;DHT22;12205;50.600;4.608;2023-08-31T08:18:44;15.60;99.90
23991;DHT22;12205;50.600;4.608;2023-08-31T08:21:11;15.70;99.90
23991;DHT22;12205;50.600;4.608;2023-08-31T08:23:38;15.80;99.90
23991;DHT22;12205;50.600;4.608;2023-08-31T08:26:05;15.80;99.90
23991;DHT22;12205;50.600;4.608;2023-08-31T08:28:33;15.90;99.90
23991;DHT22;12205;50.600;4.608;2023-08-31T08:31:01;15.80;99.90
23991;DHT22;12205;50.600;4.608;2023-08-31T08:33:31;15.80;99.90
23991;DHT22;12205;50.600;4.608;2023-08-31T08:35:58;15.90;99.90
23991;DHT22;12205;50.600;4.608;2023-08-31T08:38:25;16.00;99.90
23991;DHT22;12205;50.600;4.608;2023-08-31T08:40:52;16.10;99.90
23991;DHT22;12205;50.600;4.608;2023-08-31T08:43:23;16.10;99.90
23991;DHT22;12205;50.600;4.608;2023-08-31T08:45:52;16.10;99.90
23991;DHT22;12205;50.600;4.608;2023-08-31T08:48:20;16.20;99.90
23991;DHT22;12205;50.600;4.608;2023-08-31T08:50:49;16.40;99.90
23991;DHT22;12205;50.600;4.608;2023-08-31T08:53:16;16.50;99.90
23991;DHT22;12205;50.600;4.608;2023-08-31T08:55:43;16.60;99.90
23991;DHT22;12205;50.600;4.608;2023-08-31T08:58:10;16.50;99.90
23991;DHT22;12205;50.600;4.608;2023-08-31T09:00:37;16.50;99.90
23991;DHT22;12205;50.600;4.608;2023-08-31T09:03:06;16.50;99.90
23991;DHT22;12205;50.600;4.608;2023-08-31T09:05:33;16.60;99.90
23991;DHT22;12205;50.600;4.608;2023-08-31T09:08:06;16.80;99.90
23991;DHT22;12205;50.600;4.608;2023-08-31T09:10:39;16.90;99.90
23991;DHT22;12205;50.600;4.608;2023-08-31T09:13:07;17.10;99.90
23991;DHT22;12205;50.600;4.608;2023-08-31T09:15:43;17.20;99.90
23991;DHT22;12205;50.600;4.608;2023-08-31T09:18:15;17.20;99.90
23991;DHT22;12205;50.600;4.608;2023-08-31T09:20:46;17.30;99.90
23991;DHT22;12205;50.600;4.608;2023-08-31T09:23:15;17.40;99.90
23991;DHT22;12205;50.600;4.608;2023-08-31T09:25:43;17.60;99.90
23991;DHT22;12205;50.600;4.608;2023-08-31T09:28:11;17.70;99.90
23991;DHT22;12205;50.600;4.608;2023-08-31T09:30:38;17.60;99.90
23991;DHT22;12205;50.600;4.608;2023-08-31T09:33:07;17.60;99.90
23991;DHT22;12205;50.600;4.608;2023-08-31T09:35:38;17.50;99.90
23991;DHT22;12205;50.600;4.608;2023-08-31T09:38:07;17.40;99.90
23991;DHT22;12205;50.600;4.608;2023-08-31T09:40:36;17.40;99.90
23991;DHT22;12205;50.600;4.608;2023-08-31T09:43:04;17.50;99.90
23991;DHT22;12205;50.600;4.608;2023-08-31T09:45:32;17.60;99.90
23991;DHT22;12205;50.600;4.608;2023-08-31T09:48:01;17.60;99.90
23991;DHT22;12205;50.600;4.608;2023-08-31T09:50:29;17.70;99.90
23991;DHT22;12205;50.600;4.608;2023-08-31T09:53:01;17.70;99.90
23991;DHT22;12205;50.600;4.608;2023-08-31T09:55:30;17.70;99.90
23991;DHT22;12205;50.600;4.608;2023-08-31T09:58:00;17.80;99.90
23991;DHT22;12205;50.600;4.608;2023-08-31T10:00:29;17.80;99.90
23991;DHT22;12205;50.600;4.608;2023-08-31T10:02:58;17.90;99.90
23991;DHT22;12205;50.600;4.608;2023-08-31T10:05:27;17.70;99.90
23991;DHT22;12205;50.600;4.608;2023-08-31T10:07:55;17.90;99.90
23991;DHT22;12205;50.600;4.608;2023-08-31T10:10:22;17.90;99.90
23991;DHT22;12205;50.600;4.608;2023-08-31T10:12:50;18.00;99.90
23991;DHT22;12205;50.600;4.608;2023-08-31T10:15:19;18.20;99.90
23991;DHT22;12205;50.600;4.608;2023-08-31T10:17:46;18.30;99.90
23991;DHT22;12205;50.600;4.608;2023-08-31T10:20:15;18.50;99.90
23991;DHT22;12205;50.600;4.608;2023-08-31T10:22:42;18.60;99.90
23991;DHT22;12205;50.600;4.608;2023-08-31T10:25:10;18.80;99.90
23991;DHT22;12205;50.600;4.608;2023-08-31T10:27:38;18.90;99.90
23991;DHT22;12205;50.600;4.608;2023-08-31T10:30:16;18.90;99.90
23991;DHT22;12205;50.600;4.608;2023-08-31T10:33:19;19.10;99.90
23991;DHT22;12205;50.600;4.608;2023-08-31T10:35:51;19.10;99.90
23991;DHT22;12205;50.600;4.608;2023-08-31T10:38:27;19.30;99.90
23991;DHT22;12205;50.600;4.608;2023-08-31T10:41:17;19.40;99.90
23991;DHT22;12205;50.600;4.608;2023-08-31T10:43:45;19.50;99.90
23991;DHT22;12205;50.600;4.608;2023-08-31T10:46:25;19.50;99.90
23991;DHT22;12205;50.600;4.608;2023-08-31T10:48:55;19.40;99.90
23991;DHT22;12205;50.600;4.608;2023-08-31T10:51:23;19.50;99.90
23991;DHT22;12205;50.600;4.608;2023-08-31T10:53:51;19.50;99.90
23991;DHT22;12205;50.600;4.608;2023-08-31T10:56:18;19.50;99.90
23991;DHT22;12205;50.600;4.608;2023-08-31T10:58:58;19.60;99.90
23991;DHT22;12205;50.600;4.608;2023-08-31T11:01:51;19.70;99.90
23991;DHT22;12205;50.600;4.608;2023-08-31T11:04:20;19.80;99.90
23991;DHT22;12205;50.600;4.608;2023-08-31T11:06:47;19.90;99.90
23991;DHT22;12205;50.600;4.608;2023-08-31T11:09:19;20.00;99.90
23991;DHT22;12205;50.600;4.608;2023-08-31T11:11:46;20.00;99.90
23991;DHT22;12205;50.600;4.608;2023-08-31T11:14:14;19.90;99.90
23991;DHT22;12205;50.600;4.608;2023-08-31T11:16:41;19.90;99.90
23991;DHT22;12205;50.600;4.608;2023-08-31T11:19:09;20.00;99.90
23991;DHT22;12205;50.600;4.608;2023-08-31T11:21:38;20.00;99.90
23991;DHT22;12205;50.600;4.608;2023-08-31T11:24:05;20.00;99.90
23991;DHT22;12205;50.600;4.608;2023-08-31T11:26:34;20.10;99.90
23991;DHT22;12205;50.600;4.608;2023-08-31T11:29:00;20.00;99.90
23991;DHT22;12205;50.600;4.608;2023-08-31T11:31:28;19.90;99.90
23991;DHT22;12205;50.600;4.608;2023-08-31T11:33:55;19.90;99.90
23991;DHT22;12205;50.600;4.608;2023-08-31T11:36:22;19.80;99.90
23991;DHT22;12205;50.600;4.608;2023-08-31T11:38:52;19.90;99.90
23991;DHT22;12205;50.600;4.608;2023-08-31T11:41:19;19.90;99.90
23991;DHT22;12205;50.600;4.608;2023-08-31T11:43:47;20.00;99.90
23991;DHT22;12205;50.600;4.608;2023-08-31T11:46:15;20.20;99.90
23991;DHT22;12205;50.600;4.608;2023-08-31T11:48:43;20.30;99.90
23991;DHT22;12205;50.600;4.608;2023-08-31T11:51:10;20.30;99.90
23991;DHT22;12205;50.600;4.608;2023-08-31T11:53:38;20.40;99.90
23991;DHT22;12205;50.600;4.608;2023-08-31T11:56:07;20.50;99.90
23991;DHT22;12205;50.600;4.608;2023-08-31T11:58:40;20.70;99.90
23991;DHT22;12205;50.600;4.608;2023-08-31T12:01:08;20.90;99.90
23991;DHT22;12205;50.600;4.608;2023-08-31T12:03:42;21.10;99.90
23991;DHT22;12205;50.600;4.608;2023-08-31T12:06:09;21.30;99.90
23991;DHT22;12205;50.600;4.608;2023-08-31T12:08:37;21.10;99.90
23991;DHT22;12205;50.600;4.608;2023-08-31T12:11:07;21.20;99.90
23991;DHT22;12205;50.600;4.608;2023-08-31T12:13:34;21.30;99.90
23991;DHT22;12205;50.600;4.608;2023-08-31T12:16:01;21.10;99.90
23991;DHT22;12205;50.600;4.608;2023-08-31T12:18:30;21.10;99.90
23991;DHT22;12205;50.600;4.608;2023-08-31T12:20:58;21.30;99.90
23991;DHT22;12205;50.600;4.608;2023-08-31T12:23:26;21.40;99.90
23991;DHT22;12205;50.600;4.608;2023-08-31T12:25:53;21.50;99.90
23991;DHT22;12205;50.600;4.608;2023-08-31T12:28:23;21.50;99.90
23991;DHT22;12205;50.600;4.608;2023-08-31T12:30:51;21.40;99.90
23991;DHT22;12205;50.600;4.608;2023-08-31T12:33:19;21.10;99.90
23991;DHT22;12205;50.600;4.608;2023-08-31T12:35:46;20.90;99.90
23991;DHT22;12205;50.600;4.608;2023-08-31T12:38:14;20.70;99.90
23991;DHT22;12205;50.600;4.608;2023-08-31T12:40:40;20.70;99.90
23991;DHT22;12205;50.600;4.608;2023-08-31T12:43:08;20.50;99.90
23991;DHT22;12205;50.600;4.608;2023-08-31T12:45:37;20.60;99.90
23991;DHT22;12205;50.600;4.608;2023-08-31T12:48:05;20.70;99.90
23991;DHT22;12205;50.600;4.608;2023-08-31T12:50:32;20.60;99.90
23991;DHT22;12205;50.600;4.608;2023-08-31T12:52:59;20.60;99.90
23991;DHT22;12205;50.600;4.608;2023-08-31T12:55:25;20.50;99.90
23991;DHT22;12205;50.600;4.608;2023-08-31T12:57:52;20.50;99.90
23991;DHT22;12205;50.600;4.608;2023-08-31T13:00:19;20.50;99.90
23991;DHT22;12205;50.600;4.608;2023-08-31T13:02:50;20.60;99.90
23991;DHT22;12205;50.600;4.608;2023-08-31T13:05:17;20.60;99.90
23991;DHT22;12205;50.600;4.608;2023-08-31T13:07:44;20.70;99.90
23991;DHT22;12205;50.600;4.608;2023-08-31T13:10:11;20.70;99.90
23991;DHT22;12205;50.600;4.608;2023-08-31T13:12:37;20.70;99.90
23991;DHT22;12205;50.600;4.608;2023-08-31T13:15:05;20.80;99.90
23991;DHT22;12205;50.600;4.608;2023-08-31T13:17:33;20.70;99.90
23991;DHT22;12205;50.600;4.608;2023-08-31T13:20:02;20.80;99.90
23991;DHT22;12205;50.600;4.608;2023-08-31T13:22:30;20.70;99.90
23991;DHT22;12205;50.600;4.608;2023-08-31T13:24:56;20.80;99.90
23991;DHT22;12205;50.600;4.608;2023-08-31T13:27:24;20.80;99.90
23991;DHT22;12205;50.600;4.608;2023-08-31T13:29:51;20.90;99.90
23991;DHT22;12205;50.600;4.608;2023-08-31T13:32:18;21.00;99.90
23991;DHT22;12205;50.600;4.608;2023-08-31T13:34:45;21.10;99.90
23991;DHT22;12205;50.600;4.608;2023-08-31T13:37:13;21.30;99.90
23991;DHT22;12205;50.600;4.608;2023-08-31T13:39:40;21.30;99.90
23991;DHT22;12205;50.600;4.608;2023-08-31T13:42:07;21.20;99.90
23991;DHT22;12205;50.600;4.608;2023-08-31T13:44:34;21.20;99.90
23991;DHT22;12205;50.600;4.608;2023-08-31T13:47:02;21.20;99.90
23991;DHT22;12205;50.600;4.608;2023-08-31T13:49:31;21.10;99.90
23991;DHT22;12205;50.600;4.608;2023-08-31T13:51:59;21.00;99.90
23991;DHT22;12205;50.600;4.608;2023-08-31T13:54:27;21.00;99.90
23991;DHT22;12205;50.600;4.608;2023-08-31T13:56:54;20.90;99.90
23991;DHT22;12205;50.600;4.608;2023-08-31T13:59:21;20.90;99.90
23991;DHT22;12205;50.600;4.608;2023-08-31T14:01:49;21.00;99.90
23991;DHT22;12205;50.600;4.608;2023-08-31T14:04:17;21.10;99.90
23991;DHT22;12205;50.600;4.608;2023-08-31T14:06:44;21.10;99.90
23991;DHT22;12205;50.600;4.608;2023-08-31T14:09:11;21.00;99.90
23991;DHT22;12205;50.600;4.608;2023-08-31T14:11:40;21.00;99.90
23991;DHT22;12205;50.600;4.608;2023-08-31T14:14:09;20.90;99.90
23991;DHT22;12205;50.600;4.608;2023-08-31T14:16:38;20.90;99.90
23991;DHT22;12205;50.600;4.608;2023-08-31T14:19:14;20.80;99.90
23991;DHT22;12205;50.600;4.608;2023-08-31T14:21:51;20.70;99.90
23991;DHT22;12205;50.600;4.608;2023-08-31T14:24:21;20.40;99.90
23991;DHT22;12205;50.600;4.608;2023-08-31T14:26:57;20.40;99.90
23991;DHT22;12205;50.600;4.608;2023-08-31T14:29:27;20.30;99.90
23991;DHT22;12205;50.600;4.608;2023-08-31T14:31:58;20.10;99.90
23991;DHT22;12205;50.600;4.608;2023-08-31T14:34:26;20.00;99.90
23991;DHT22;12205;50.600;4.608;2023-08-31T14:36:58;20.00;99.90
23991;DHT22;12205;50.600;4.608;2023-08-31T14:39:27;20.00;99.90
23991;DHT22;12205;50.600;4.608;2023-08-31T14:41:57;19.90;99.90
23991;DHT22;12205;50.600;4.608;2023-08-31T14:44:25;19.80;99.90
23991;DHT22;12205;50.600;4.608;2023-08-31T14:46:56;19.80;99.90
23991;DHT22;12205;50.600;4.608;2023-08-31T14:49:24;19.90;99.90
23991;DHT22;12205;50.600;4.608;2023-08-31T14:51:55;19.90;99.90
23991;DHT22;12205;50.600;4.608;2023-08-31T14:54:25;19.90;99.90
23991;DHT22;12205;50.600;4.608;2023-08-31T14:56:57;19.70;99.90
23991;DHT22;12205;50.600;4.608;2023-08-31T14:59:34;19.60;99.90
23991;DHT22;12205;50.600;4.608;2023-08-31T15:02:02;19.40;99.90
23991;DHT22;12205;50.600;4.608;2023-08-31T15:04:34;19.30;99.90
23991;DHT22;12205;50.600;4.608;2023-08-31T15:07:04;19.30;99.90
23991;DHT22;12205;50.600;4.608;2023-08-31T15:09:35;19.40;99.90
23991;DHT22;12205;50.600;4.608;2023-08-31T15:12:05;19.40;99.90
23991;DHT22;12205;50.600;4.608;2023-08-31T15:14:33;19.30;99.90
23991;DHT22;12205;50.600;4.608;2023-08-31T15:17:04;19.20;99.90
23991;DHT22;12205;50.600;4.608;2023-08-31T15:19:32;19.30;99.90
23991;DHT22;12205;50.600;4.608;2023-08-31T15:22:00;19.20;99.90
23991;DHT22;12205;50.600;4.608;2023-08-31T15:24:28;19.20;99.90
23991;DHT22;12205;50.600;4.608;2023-08-31T15:27:00;19.20;99.90
23991;DHT22;12205;50.600;4.608;2023-08-31T15:29:31;19.10;99.90
23991;DHT22;12205;50.600;4.608;2023-08-31T15:32:00;19.10;99.90
23991;DHT22;12205;50.600;4.608;2023-08-31T15:34:30;19.20;99.90
23991;DHT22;12205;50.600;4.608;2023-08-31T15:36:59;19.40;99.90
23991;DHT22;12205;50.600;4.608;2023-08-31T15:39:31;19.40;99.90